Time;durP1;ratioP1;P1;durP2;ratioP2;P2;SDS_P1;SDS_P2;PMS_P1;PMS_P2;Temp;Humidity;BMP_temperature;BMP_pressure;BME280_temperature;BME280_humidity;BME280_pressure;Samples;Min_cycle;Max_cycle;Signal;HPM_P1;HPM_P2
2021/12/09 00:00:37;;;;;;;57.30;24.10;;;;;;;-1.79;88.70;94278.91;5128482;27;20213;-80
2021/12/09 00:03:07;;;;;;;52.83;22.73;;;;;;;-1.81;88.07;94289.78;5135195;27;20199;-80
2021/12/09 00:05:35;;;;;;;51.42;22.23;;;;;;;-1.66;88.59;94297.00;5137318;27;20209;-79
2021/12/09 00:08:03;;;;;;;42.20;18.98;;;;;;;-1.54;87.55;94297.59;5136692;27;20202;-79
2021/12/09 00:10:33;;;;;;;42.03;19.45;;;;;;;-1.50;85.67;94289.88;5114612;28;20197;-79
2021/12/09 00:13:00;;;;;;;24.13;9.90;;;;;;;-1.56;85.15;94278.47;5113917;28;20201;-79
2021/12/09 00:15:27;;;;;;;40.13;17.63;;;;;;;-2.03;87.70;94275.88;5113763;28;20286;-79
2021/12/09 00:17:54;;;;;;;50.97;22.50;;;;;;;-2.08;88.10;94280.34;5124000;27;20197;-79
2021/12/09 00:20:21;;;;;;;52.60;21.30;;;;;;;-2.21;88.56;94277.13;5135161;27;20209;-79
2021/12/09 00:22:48;;;;;;;43.33;19.23;;;;;;;-2.29;89.10;94276.78;5134380;27;20719;-79
2021/12/09 00:25:15;;;;;;;26.40;12.57;;;;;;;-2.43;89.04;94273.78;5133718;27;20671;-79
2021/12/09 00:27:44;;;;;;;23.08;10.88;;;;;;;-2.57;89.64;94283.22;5134194;27;20257;-78
2021/12/09 00:30:12;;;;;;;24.27;9.15;;;;;;;-2.61;90.38;94292.75;5138826;27;20234;-78
2021/12/09 00:32:40;;;;;;;21.60;10.60;;;;;;;-2.63;90.80;94276.31;5142908;27;20250;-79
2021/12/09 00:35:09;;;;;;;25.67;12.00;;;;;;;-2.54;90.89;94274.78;5129455;27;20295;-80
2021/12/09 00:37:39;;;;;;;17.05;8.13;;;;;;;-2.56;90.91;94253.00;5113778;28;20205;-79
2021/12/09 00:40:08;;;;;;;21.60;11.20;;;;;;;-2.51;90.86;94250.41;5130517;27;20533;-79
2021/12/09 00:42:36;;;;;;;18.45;9.70;;;;;;;-2.61;90.90;94245.03;5140976;27;20280;-78
2021/12/09 00:45:05;;;;;;;22.30;8.82;;;;;;;-2.56;90.85;94242.41;5127771;27;20682;-79
2021/12/09 00:47:32;;;;;;;14.93;8.10;;;;;;;-2.48;91.22;94234.00;5125752;27;20209;-78
2021/12/09 00:49:59;;;;;;;21.05;10.48;;;;;;;-2.65;90.95;94223.53;5113237;28;20209;-79
2021/12/09 00:52:27;;;;;;;24.17;11.00;;;;;;;-2.56;91.52;94231.81;5113157;28;20209;-79
2021/12/09 00:54:57;;;;;;;30.92;14.25;;;;;;;-2.37;91.71;94248.91;5113606;28;20210;-78
2021/12/09 00:57:24;;;;;;;30.70;12.90;;;;;;;-2.26;91.52;94253.19;5128588;27;20212;-78
2021/12/09 00:59:51;;;;;;;32.92;12.68;;;;;;;-2.18;91.13;94252.69;5133096;27;20207;-79
2021/12/09 01:02:20;;;;;;;32.55;9.93;;;;;;;-2.22;90.84;94249.00;5146172;27;20203;-79
2021/12/09 01:04:51;;;;;;;46.83;19.33;;;;;;;-2.24;91.16;94248.44;5122441;27;20605;-79
2021/12/09 01:07:18;;;;;;;31.77;15.80;;;;;;;-2.17;91.41;94251.66;5137033;27;20623;-79
2021/12/09 01:09:45;;;;;;;33.53;13.55;;;;;;;-1.80;91.40;94253.44;5133763;27;20254;-80
2021/12/09 01:12:12;;;;;;;26.88;13.43;;;;;;;-1.34;91.03;94248.22;5113050;28;20601;-78
2021/12/09 01:14:40;;;;;;;32.05;12.85;;;;;;;-1.22;89.64;94256.75;5112957;28;20682;-78
2021/12/09 01:17:08;;;;;;;27.90;12.80;;;;;;;-1.30;87.96;94254.63;5112405;28;20279;-79
2021/12/09 01:19:37;;;;;;;28.05;14.27;;;;;;;-1.30;88.31;94259.94;5124415;27;20750;-79
2021/12/09 01:22:04;;;;;;;33.45;13.18;;;;;;;-1.23;88.17;94241.91;5133353;27;20265;-79
2021/12/09 01:24:31;;;;;;;23.15;10.88;;;;;;;-1.24;87.81;94249.06;5132968;27;20301;-79
2021/12/09 01:26:59;;;;;;;30.20;12.95;;;;;;;-1.36;87.48;94245.03;5133319;27;20212;-79
2021/12/09 01:29:33;;;;;;;32.72;13.68;;;;;;;-1.19;87.59;94240.28;5133368;27;20201;-79
2021/12/09 01:32:03;;;;;;;36.95;15.57;;;;;;;-1.29;87.92;94234.97;5133681;27;20200;-79
2021/12/09 01:34:30;;;;;;;23.60;10.68;;;;;;;-1.34;87.76;94248.22;5132817;27;20223;-79
2021/12/09 01:36:59;;;;;;;37.45;13.40;;;;;;;-1.54;88.80;94244.47;5119737;27;20224;-78
2021/12/09 01:39:27;;;;;;;24.30;11.50;;;;;;;-1.35;88.32;94251.94;5133357;27;20205;-78
2021/12/09 01:41:54;;;;;;;28.38;11.13;;;;;;;-1.00;88.36;94252.00;5133748;27;20232;-78
2021/12/09 01:44:21;;;;;;;19.98;9.98;;;;;;;-0.92;86.55;94251.47;5133724;27;20237;-78
2021/12/09 01:46:48;;;;;;;22.50;10.95;;;;;;;-1.13;86.40;94255.19;5138307;27;20206;-78
2021/12/09 01:49:15;;;;;;;25.67;11.32;;;;;;;-1.11;86.28;94237.91;5113059;28;20606;-78
2021/12/09 01:51:45;;;;;;;24.98;12.07;;;;;;;-0.97;86.64;94235.53;5112143;28;20213;-78
2021/12/09 01:54:13;;;;;;;27.05;11.82;;;;;;;-0.92;86.55;94238.19;5127596;27;20205;-78
2021/12/09 01:56:40;;;;;;;25.83;11.90;;;;;;;-1.41;86.58;94237.88;5133110;27;20237;-78
2021/12/09 01:59:07;;;;;;;28.35;11.85;;;;;;;-1.31;87.83;94237.09;5135535;27;20204;-79
2021/12/09 02:01:35;;;;;;;31.92;14.25;;;;;;;-1.32;88.13;94251.41;5134588;27;20209;-79
2021/12/09 02:04:05;;;;;;;25.05;12.85;;;;;;;-1.18;88.19;94257.81;5112099;28;20210;-78
2021/12/09 02:06:33;;;;;;;27.42;12.40;;;;;;;-0.88;88.63;94249.88;5122409;27;20337;-77
2021/12/09 02:09:00;;;;;;;33.20;15.07;;;;;;;-1.01;86.48;94244.28;5132601;27;20205;-77
2021/12/09 02:11:28;;;;;;;23.90;10.57;;;;;;;-0.85;86.08;94230.75;5132709;27;20200;-77
2021/12/09 02:13:57;;;;;;;30.08;13.80;;;;;;;-0.96;86.39;94233.69;5132456;27;20215;-77
2021/12/09 02:16:24;;;;;;;34.90;12.82;;;;;;;-0.72;86.18;94230.22;5132510;27;20289;-78
2021/12/09 02:18:51;;;;;;;34.55;15.57;;;;;;;-0.76;85.74;94231.81;5141871;27;20210;-78
2021/12/09 02:21:22;;;;;;;35.95;14.32;;;;;;;-0.56;84.98;94222.22;5111742;28;20398;-77
2021/12/09 02:23:51;;;;;;;32.05;14.88;;;;;;;-0.59;85.67;94220.91;5111524;28;20556;-78
2021/12/09 02:26:21;;;;;;;27.63;12.30;;;;;;;-0.75;84.82;94230.75;5111348;28;20201;-78
2021/12/09 02:28:49;;;;;;;27.20;11.75;;;;;;;-1.16;85.69;94235.25;5131800;27;20258;-78
2021/12/09 02:31:16;;;;;;;35.95;16.25;;;;;;;-1.27;88.04;94264.72;5132304;27;20607;-78
2021/12/09 02:33:43;;;;;;;26.10;10.32;;;;;;;-1.17;87.51;94265.53;5131738;27;20234;-79
2021/12/09 02:36:10;;;;;;;27.70;12.43;;;;;;;-1.02;86.84;94256.78;5118132;27;20365;-78
2021/12/09 02:38:43;;;;;;;33.30;13.95;;;;;;;-0.88;86.40;94241.91;5118631;27;20201;-79
2021/12/09 02:41:15;;;;;;;29.35;14.40;;;;;;;-0.99;86.08;94247.50;5116808;27;20225;-79
2021/12/09 02:43:43;;;;;;;26.73;11.90;;;;;;;-0.98;86.39;94244.56;5120265;27;20213;-79
2021/12/09 02:46:09;;;;;;;28.40;13.95;;;;;;;-1.00;86.27;94243.25;5132104;27;20261;-79
2021/12/09 02:48:36;;;;;;;26.20;11.48;;;;;;;-0.84;86.21;94232.34;5132089;27;20352;-79
2021/12/09 02:51:05;;;;;;;31.17;13.85;;;;;;;-0.99;85.87;94228.88;5132504;27;20208;-79
2021/12/09 02:53:32;;;;;;;28.92;13.65;;;;;;;-1.01;86.68;94234.47;5131451;27;20612;-79
2021/12/09 02:56:04;;;;;;;31.50;14.93;;;;;;;-1.41;87.07;94226.44;5131779;27;20281;-79
2021/12/09 02:58:31;;;;;;;33.65;15.40;;;;;;;-1.51;89.03;94243.97;5132066;27;20244;-79
2021/12/09 03:01:12;;;;;;;31.27;14.18;;;;;;;-1.42;89.44;94240.78;5131876;27;20209;-79
2021/12/09 03:03:49;;;;;;;32.53;12.85;;;;;;;-1.15;89.18;94252.00;5131194;27;20200;-80
2021/12/09 03:06:18;;;;;;;34.70;13.77;;;;;;;-0.89;88.18;94256.25;5131036;27;20667;-80
2021/12/09 03:08:45;;;;;;;36.95;14.48;;;;;;;-0.85;87.78;94241.38;5130234;27;20204;-81
2021/12/09 03:11:19;;;;;;;27.17;14.20;;;;;;;-0.77;87.69;94248.03;5130608;27;20220;-80
2021/12/09 03:13:47;;;;;;;27.63;13.48;;;;;;;-0.97;87.14;94238.19;5131554;27;20548;-80
2021/12/09 03:16:14;;;;;;;30.73;14.60;;;;;;;-1.04;87.42;94232.34;5141052;27;20318;-80
2021/12/09 03:18:44;;;;;;;34.70;13.70;;;;;;;-1.01;87.86;94231.00;5118739;27;20309;-81
2021/12/09 03:21:15;;;;;;;31.98;14.40;;;;;;;-0.93;87.44;94217.97;5111121;28;20210;-79
2021/12/09 03:23:43;;;;;;;15.00;8.43;;;;;;;-1.09;86.67;94232.31;5112581;28;20292;-79
2021/12/09 03:26:10;;;;;;;27.85;12.95;;;;;;;-1.49;88.45;94254.28;5126651;27;20209;-79
2021/12/09 03:28:38;;;;;;;35.63;16.55;;;;;;;-1.47;89.33;94244.22;5135272;27;20289;-79
2021/12/09 03:31:05;;;;;;;38.33;15.23;;;;;;;-1.24;88.93;94258.88;5135861;27;20209;-79
2021/12/09 03:33:32;;;;;;;34.58;15.30;;;;;;;-1.18;88.60;94268.44;5135784;27;20209;-79
2021/12/09 03:36:01;;;;;;;38.55;17.08;;;;;;;-1.00;87.94;94267.97;5123265;27;20683;-79
2021/12/09 03:38:28;;;;;;;32.45;11.85;;;;;;;-0.89;86.46;94245.63;5114969;28;20261;-79
2021/12/09 03:40:56;;;;;;;36.13;18.08;;;;;;;-0.74;87.09;94242.97;5114796;28;20629;-80
2021/12/09 03:43:23;;;;;;;35.63;16.45;;;;;;;-0.70;86.60;94245.09;5142329;27;20212;-78
2021/12/09 03:45:55;;;;;;;32.28;14.18;;;;;;;-1.13;87.17;94240.03;5128011;27;20717;-78
2021/12/09 03:48:23;;;;;;;34.38;16.70;;;;;;;-1.33;88.54;94236.53;5115150;28;20201;-78
2021/12/09 03:50:50;;;;;;;41.03;19.02;;;;;;;-1.32;89.25;94240.78;5129960;27;20200;-77
2021/12/09 03:53:16;;;;;;;40.85;17.27;;;;;;;-0.96;88.08;94236.34;5135036;27;20674;-77
2021/12/09 03:55:43;;;;;;;43.30;19.52;;;;;;;-0.80;87.77;94227.28;5134778;27;20592;-78
2021/12/09 03:58:10;;;;;;;52.03;21.13;;;;;;;-1.08;87.45;94242.69;5134697;27;20232;-78
2021/12/09 04:00:37;;;;;;;49.45;22.13;;;;;;;-1.21;87.74;94253.03;5136941;27;20256;-78
2021/12/09 04:03:07;;;;;;;45.65;20.98;;;;;;;-1.07;88.00;94276.16;5138172;27;20224;-78
2021/12/09 04:05:35;;;;;;;48.92;19.20;;;;;;;-0.91;87.87;94262.91;5132673;27;20204;-78
2021/12/09 04:08:03;;;;;;;48.10;20.63;;;;;;;-0.72;87.36;94266.66;5146955;27;20269;-78
2021/12/09 04:10:31;;;;;;;41.90;19.27;;;;;;;-0.82;85.92;94267.41;5148700;27;20571;-80
2021/12/09 04:12:58;;;;;;;44.53;19.30;;;;;;;-0.69;85.69;94262.66;5145126;27;20283;-78
2021/12/09 04:15:25;;;;;;;50.55;19.90;;;;;;;-0.77;85.41;94266.63;5142212;27;20257;-79
2021/12/09 04:17:52;;;;;;;43.03;18.92;;;;;;;-0.69;86.04;94260.00;5146060;27;20239;-80
2021/12/09 04:20:21;;;;;;;47.88;19.25;;;;;;;-0.52;85.24;94263.97;5148364;27;20208;-80
2021/12/09 04:22:49;;;;;;;52.15;21.55;;;;;;;-0.52;86.49;94265.81;5145211;27;20207;-80
2021/12/09 04:25:17;;;;;;;42.40;20.63;;;;;;;-0.57;85.86;94268.50;5141352;27;20252;-79
2021/12/09 04:27:44;;;;;;;29.98;11.77;;;;;;;-1.16;86.62;94266.34;5145195;27;20236;-79
2021/12/09 04:30:11;;;;;;;39.47;18.67;;;;;;;-1.44;86.72;94265.75;5148589;27;20261;-79
2021/12/09 04:32:39;;;;;;;36.90;14.25;;;;;;;-1.58;87.59;94263.84;5145633;27;20196;-79
2021/12/09 04:35:09;;;;;;;50.88;21.90;;;;;;;-1.62;88.73;94271.53;5147304;27;20220;-78
2021/12/09 04:37:38;;;;;;;51.92;21.23;;;;;;;-1.41;88.89;94279.56;5143433;27;20314;-79
2021/12/09 04:40:07;;;;;;;48.30;20.38;;;;;;;-1.16;87.83;94282.28;5142983;27;20197;-79
2021/12/09 04:42:34;;;;;;;46.70;19.17;;;;;;;-1.01;87.15;94282.31;5134453;27;20197;-79
2021/12/09 04:45:01;;;;;;;49.55;19.20;;;;;;;-1.41;87.42;94275.06;5155256;27;20265;-79
2021/12/09 04:47:28;;;;;;;58.47;23.73;;;;;;;-1.20;88.10;94270.56;5155436;27;20223;-79
2021/12/09 04:49:56;;;;;;;58.80;23.30;;;;;;;-1.15;87.86;94278.56;5140282;27;20215;-79
2021/12/09 04:52:22;;;;;;;48.08;19.95;;;;;;;-1.12;87.30;94272.72;5140634;27;20212;-79
2021/12/09 04:54:51;;;;;;;52.40;20.48;;;;;;;-1.03;87.83;94292.41;5141840;27;20196;-78
2021/12/09 04:57:18;;;;;;;48.35;19.20;;;;;;;-0.92;88.08;94288.69;5139977;27;20644;-77
2021/12/09 04:59:47;;;;;;;38.45;15.93;;;;;;;-0.96;86.26;94303.59;5141759;27;20212;-77
2021/12/09 05:02:23;;;;;;;49.10;19.35;;;;;;;-1.45;87.58;94296.00;5139794;27;20513;-77
2021/12/09 05:04:49;;;;;;;51.05;20.88;;;;;;;-1.44;87.92;94287.00;5133659;27;20596;-77
2021/12/09 05:07:16;;;;;;;40.15;18.60;;;;;;;-1.23;87.01;94287.06;5145296;27;20248;-76
2021/12/09 05:09:50;;;;;;;41.95;18.70;;;;;;;-1.23;87.72;94297.69;5132536;27;20208;-76
2021/12/09 05:12:18;;;;;;;43.88;17.27;;;;;;;-1.24;87.68;94290.78;5132449;27;20292;-78
2021/12/09 05:14:47;;;;;;;52.60;20.48;;;;;;;-1.50;87.90;94281.91;5124331;27;20710;-79
2021/12/09 05:17:15;;;;;;;46.78;20.15;;;;;;;-1.47;89.04;94284.84;5143265;27;20367;-79
2021/12/09 05:19:42;;;;;;;45.25;18.40;;;;;;;-1.39;88.46;94298.69;5112823;28;20600;-79
2021/12/09 05:22:09;;;;;;;41.35;18.17;;;;;;;-1.44;88.79;94297.63;5113626;28;20206;-79
2021/12/09 05:24:37;;;;;;;58.72;24.88;;;;;;;-1.19;88.61;94309.38;5124704;27;20201;-78
2021/12/09 05:27:05;;;;;;;44.45;18.67;;;;;;;-1.18;87.49;94295.81;5133541;27;20232;-79
2021/12/09 05:29:38;;;;;;;24.35;11.50;;;;;;;-1.54;88.36;94296.78;5146180;27;20211;-79
2021/12/09 05:32:08;;;;;;;47.78;18.95;;;;;;;-1.43;88.99;94293.09;5131536;27;20197;-79
2021/12/09 05:34:37;;;;;;;50.03;19.73;;;;;;;-1.33;88.90;94287.00;5135365;27;20193;-79
2021/12/09 05:37:05;;;;;;;40.45;18.70;;;;;;;-1.04;88.51;94292.66;5147159;27;20228;-78
2021/12/09 05:39:32;;;;;;;44.30;14.25;;;;;;;-0.98;87.05;94288.97;5142283;27;20211;-78
2021/12/09 05:42:00;;;;;;;53.90;19.83;;;;;;;-0.94;86.60;94298.78;5132962;27;20286;-78
2021/12/09 05:44:27;;;;;;;39.75;16.52;;;;;;;-0.99;87.07;94306.75;5119167;27;20205;-78
2021/12/09 05:46:55;;;;;;;37.83;17.58;;;;;;;-1.36;87.56;94288.31;5141678;27;20200;-78
2021/12/09 05:49:23;;;;;;;50.33;19.50;;;;;;;-1.42;88.70;94299.22;5153480;27;20659;-79
2021/12/09 05:51:50;;;;;;;56.45;19.52;;;;;;;-1.21;88.80;94300.84;5143253;27;20638;-79
2021/12/09 05:54:17;;;;;;;55.53;20.58;;;;;;;-1.11;87.87;94299.03;5132316;27;20212;-78
2021/12/09 05:56:44;;;;;;;35.50;16.13;;;;;;;-1.11;87.73;94298.25;5143112;27;20200;-79
2021/12/09 05:59:11;;;;;;;35.75;16.27;;;;;;;-1.18;87.17;94303.00;5139440;27;20200;-79
2021/12/09 06:01:40;;;;;;;34.08;14.68;;;;;;;-1.15;87.21;94313.91;5130350;27;20591;-79
2021/12/09 06:04:09;;;;;;;50.05;14.68;;;;;;;-1.47;87.55;94308.75;5115821;27;20261;-79
2021/12/09 06:06:36;;;;;;;16.55;8.25;;;;;;;-1.57;88.11;94300.75;5132480;27;20212;-78
2021/12/09 06:09:04;;;;;;;42.25;16.08;;;;;;;-1.74;88.66;94312.63;5132718;27;20684;-78
2021/12/09 06:11:34;;;;;;;38.13;14.65;;;;;;;-1.65;88.42;94311.88;5132739;27;20226;-79
2021/12/09 06:14:01;;;;;;;48.47;20.92;;;;;;;-1.42;88.50;94293.91;5131943;27;20224;-79
2021/12/09 06:16:29;;;;;;;29.20;13.60;;;;;;;-1.44;87.10;94296.81;5132098;27;20208;-79
2021/12/09 06:18:55;;;;;;;44.72;16.50;;;;;;;-1.41;87.95;94298.16;5140538;27;20327;-80
2021/12/09 06:21:27;;;;;;;45.03;20.75;;;;;;;-1.30;88.11;94302.44;5124690;27;20197;-78
2021/12/09 06:23:54;;;;;;;39.83;16.27;;;;;;;-0.98;86.92;94320.84;5139120;27;20225;-78
2021/12/09 06:26:21;;;;;;;20.50;9.25;;;;;;;-1.33;86.43;94308.25;5111721;28;20197;-79
2021/12/09 06:28:49;;;;;;;64.88;21.70;;;;;;;-1.36;86.81;94324.72;5118582;27;20216;-79
2021/12/09 06:31:16;;;;;;;36.05;13.23;;;;;;;-1.45;86.85;94305.84;5132473;27;20667;-79
2021/12/09 06:33:43;;;;;;;64.15;22.33;;;;;;;-1.17;87.30;94318.69;5137344;27;20216;-80
2021/12/09 06:36:10;;;;;;;37.28;16.60;;;;;;;-1.32;87.63;94325.81;5131892;27;20200;-79
2021/12/09 06:38:39;;;;;;;26.65;9.75;;;;;;;-1.44;87.97;94318.88;5132181;27;20233;-79
2021/12/09 06:41:08;;;;;;;29.15;13.10;;;;;;;-1.89;89.89;94316.81;5131638;27;20297;-80
2021/12/09 06:43:37;;;;;;;36.63;12.15;;;;;;;-1.87;89.85;94314.69;5140036;27;20201;-79
2021/12/09 06:46:05;;;;;;;41.08;14.90;;;;;;;-1.61;90.02;94323.56;5121500;27;20592;-80
2021/12/09 06:48:33;;;;;;;28.50;13.52;;;;;;;-1.47;89.51;94322.03;5111746;28;20284;-80
2021/12/09 06:51:01;;;;;;;20.35;10.27;;;;;;;-1.61;89.39;94306.84;5127401;27;20201;-79
2021/12/09 06:53:28;;;;;;;42.50;17.67;;;;;;;-1.55;89.28;94317.22;5131821;27;20312;-79
2021/12/09 06:55:56;;;;;;;40.67;15.73;;;;;;;-1.48;88.96;94309.81;5131522;27;20208;-80
2021/12/09 06:58:24;;;;;;;72.60;21.42;;;;;;;-1.66;89.18;94310.28;5140929;27;20227;-80
2021/12/09 07:00:51;;;;;;;50.00;18.27;;;;;;;-1.72;89.18;94311.31;5118022;27;20218;-79
2021/12/09 07:03:21;;;;;;;55.78;17.45;;;;;;;-1.45;89.02;94311.94;5110419;28;20250;-79
2021/12/09 07:05:48;;;;;;;37.25;16.45;;;;;;;-1.28;88.47;94300.31;5109933;28;20232;-80
2021/12/09 07:08:15;;;;;;;55.38;17.38;;;;;;;-1.37;89.16;94312.53;5121196;27;20479;-80
2021/12/09 07:10:43;;;;;;;52.95;19.77;;;;;;;-1.28;89.57;94301.13;5131807;27;20651;-80
2021/12/09 07:13:11;;;;;;;45.97;19.25;;;;;;;-1.02;88.29;94309.94;5131888;27;20221;-79
2021/12/09 07:15:39;;;;;;;57.50;20.60;;;;;;;-1.01;87.39;94306.22;5131697;27;20204;-79
2021/12/09 07:18:08;;;;;;;51.88;21.10;;;;;;;-0.81;86.73;94308.91;5131593;27;20232;-79
2021/12/09 07:20:35;;;;;;;55.33;19.98;;;;;;;-0.77;86.57;94312.63;5136055;27;20253;-78
2021/12/09 07:23:02;;;;;;;51.70;21.30;;;;;;;-0.86;86.12;94314.22;5129671;27;20251;-78
2021/12/09 07:25:29;;;;;;;57.13;21.13;;;;;;;-0.94;86.84;94306.75;5129208;27;20200;-78
2021/12/09 07:27:57;;;;;;;66.43;23.15;;;;;;;-0.85;85.67;94299.88;5131836;27;20209;-78
2021/12/09 07:30:27;;;;;;;56.20;21.60;;;;;;;-0.59;85.80;94299.88;5140174;27;20251;-78
2021/12/09 07:32:54;;;;;;;66.70;21.67;;;;;;;-0.41;84.68;94294.03;5111001;28;20467;-78
2021/12/09 07:35:23;;;;;;;46.42;17.45;;;;;;;0.18;84.13;94280.06;5136593;27;20250;-78
2021/12/09 07:37:49;;;;;;;56.90;19.65;;;;;;;0.13;82.16;94266.78;5144590;27;20232;-80
2021/12/09 07:40:18;;;;;;;49.50;20.33;;;;;;;0.66;83.16;94282.00;5112035;27;20237;-78
2021/12/09 07:42:46;;;;;;;53.33;21.67;;;;;;;0.91;81.30;94277.59;5125563;27;20675;-78
2021/12/09 07:45:14;;;;;;;38.65;17.25;;;;;;;1.53;78.14;94268.09;5131279;27;20200;-78
2021/12/09 07:47:43;;;;;;;52.55;19.10;;;;;;;1.15;78.67;94283.84;5131271;27;20211;-76
2021/12/09 07:50:13;;;;;;;53.22;20.40;;;;;;;0.57;79.43;94262.31;5131538;27;20293;-75
2021/12/09 07:52:42;;;;;;;50.97;19.45;;;;;;;0.40;80.78;94283.19;5133562;27;20201;-77
2021/12/09 07:55:09;;;;;;;32.35;12.40;;;;;;;-0.09;82.76;94267.09;5132866;27;20687;-76
2021/12/09 07:57:37;;;;;;;56.42;21.38;;;;;;;0.36;82.98;94282.13;5127393;27;20620;-75
2021/12/09 08:00:06;;;;;;;38.70;18.10;;;;;;;0.56;81.42;94266.06;5130920;27;20197;-76
2021/12/09 08:02:33;;;;;;;46.47;19.15;;;;;;;0.70;82.30;94287.56;5134253;27;20208;-76
2021/12/09 08:05:01;;;;;;;21.20;9.65;;;;;;;0.55;80.85;94267.13;5131458;27;20224;-76
2021/12/09 08:07:28;;;;;;;46.90;16.88;;;;;;;0.21;82.36;94284.84;5109914;28;20675;-75
2021/12/09 08:09:55;;;;;;;50.17;18.27;;;;;;;0.23;81.79;94256.09;5113498;28;20206;-77
2021/12/09 08:12:24;;;;;;;58.20;21.33;;;;;;;0.33;82.56;94253.38;5114347;28;20209;-76
2021/12/09 08:14:51;;;;;;;44.08;18.40;;;;;;;0.85;80.87;94268.03;5124716;27;20225;-76
2021/12/09 08:17:44;;;;;;;70.15;25.40;;;;;;;0.96;81.34;94294.34;5133923;27;20577;-77
2021/12/09 08:20:15;;;;;;;58.90;20.05;;;;;;;0.58;82.25;94289.75;5135308;27;20193;-75
2021/12/09 08:22:42;;;;;;;68.53;25.65;;;;;;;0.81;80.09;94283.00;5135179;27;20201;-76
2021/12/09 08:25:12;;;;;;;62.75;23.55;;;;;;;0.94;80.12;94271.75;5146360;27;20200;-76
2021/12/09 08:27:39;;;;;;;50.20;20.33;;;;;;;0.61;79.56;94279.38;5123689;27;20288;-77
2021/12/09 08:30:07;;;;;;;60.53;25.15;;;;;;;0.66;82.07;94292.69;5134790;27;20261;-77
2021/12/09 08:32:35;;;;;;;43.13;15.70;;;;;;;0.72;80.27;94301.44;5134157;27;20589;-76
2021/12/09 08:35:02;;;;;;;56.22;23.20;;;;;;;0.44;81.78;94284.22;5131075;27;20628;-76
2021/12/09 08:37:30;;;;;;;49.90;22.50;;;;;;;0.58;80.25;94263.13;5114178;28;20243;-77
2021/12/09 08:39:57;;;;;;;59.33;25.33;;;;;;;1.38;80.91;94280.47;5126124;27;20194;-76
2021/12/09 08:42:25;;;;;;;48.92;20.58;;;;;;;1.04;78.76;94250.31;5138054;27;20269;-76
2021/12/09 08:44:53;;;;;;;42.88;19.48;;;;;;;1.82;78.93;94260.88;5116290;27;20808;-76
2021/12/09 08:47:20;;;;;;;50.33;18.50;;;;;;;1.40;78.00;94265.00;5125938;27;20669;-76
2021/12/09 08:49:47;;;;;;;44.95;18.05;;;;;;;1.42;78.05;94236.16;5133224;27;20671;-76
2021/12/09 08:52:15;;;;;;;50.72;21.77;;;;;;;1.14;79.97;94258.25;5133519;27;20656;-76
2021/12/09 08:54:43;;;;;;;44.13;19.05;;;;;;;0.59;79.33;94244.19;5133013;27;20205;-77
2021/12/09 08:57:11;;;;;;;52.33;20.15;;;;;;;0.23;83.03;94285.38;5133912;27;20209;-76
2021/12/09 08:59:38;;;;;;;58.72;23.67;;;;;;;0.02;82.65;94254.53;5134062;27;20327;-75
2021/12/09 09:02:05;;;;;;;54.17;21.92;;;;;;;0.25;84.19;94251.28;5147423;27;20211;-75
2021/12/09 09:04:32;;;;;;;49.33;18.70;;;;;;;0.66;83.43;94251.91;5120248;27;20209;-74
2021/12/09 09:07:01;;;;;;;50.00;19.67;;;;;;;1.03;80.58;94232.72;5134339;27;20204;-75
2021/12/09 09:09:33;;;;;;;42.88;19.25;;;;;;;1.21;79.81;94213.41;5133352;27;20309;-75
2021/12/09 09:12:06;;;;;;;55.60;21.27;;;;;;;1.75;78.63;94234.53;5145636;27;20192;-75
2021/12/09 09:14:32;;;;;;;54.08;20.30;;;;;;;1.59;78.82;94242.97;5112418;28;20613;-74
2021/12/09 09:17:00;;;;;;;40.40;16.27;;;;;;;1.09;79.43;94210.31;5112652;28;20217;-76
2021/12/09 09:19:27;;;;;;;53.53;23.20;;;;;;;1.40;80.89;94222.28;5112958;28;20233;-77
2021/12/09 09:21:54;;;;;;;53.80;21.67;;;;;;;2.24;79.55;94213.97;5112175;28;20304;-76
2021/12/09 09:24:21;;;;;;;54.75;20.08;;;;;;;2.49;76.87;94194.94;5123317;27;20208;-76
2021/12/09 09:26:48;;;;;;;59.25;25.20;;;;;;;2.09;77.74;94188.22;5133872;27;20205;-79
2021/12/09 09:29:18;;;;;;;58.92;25.73;;;;;;;1.81;77.60;94189.88;5133584;27;20212;-78
2021/12/09 09:31:46;;;;;;;60.25;24.20;;;;;;;2.11;77.79;94205.56;5133984;27;20269;-78
2021/12/09 09:34:13;;;;;;;56.05;23.05;;;;;;;2.47;76.15;94202.44;5133112;27;20197;-77
2021/12/09 09:36:44;;;;;;;50.38;21.50;;;;;;;2.55;76.43;94204.50;5115251;27;20241;-78
2021/12/09 09:39:20;;;;;;;46.85;21.17;;;;;;;2.62;74.54;94188.88;5131269;27;20226;-78
2021/12/09 09:41:55;;;;;;;56.47;23.70;;;;;;;3.12;74.35;94197.28;5118691;27;20316;-78
2021/12/09 09:44:29;;;;;;;59.55;23.50;;;;;;;3.45;73.35;94177.44;5145897;27;20192;-76
2021/12/09 09:46:59;;;;;;;57.38;24.55;;;;;;;3.60;72.81;94202.34;5121502;27;20209;-75
2021/12/09 09:49:26;;;;;;;47.80;20.08;;;;;;;3.88;70.64;94182.56;5132919;27;20205;-77
2021/12/09 09:51:56;;;;;;;69.40;25.42;;;;;;;4.03;71.60;94178.81;5132925;27;20209;-76
2021/12/09 09:54:24;;;;;;;63.47;24.50;;;;;;;3.81;69.76;94166.09;5132603;27;20698;-77
2021/12/09 09:56:51;;;;;;;63.90;28.02;;;;;;;3.00;73.45;94152.25;5144081;27;20192;-77
2021/12/09 09:59:18;;;;;;;65.75;26.13;;;;;;;3.54;72.91;94159.63;5118621;27;20638;-75
2021/12/09 10:01:50;;;;;;;56.65;24.92;;;;;;;3.98;71.17;94139.50;5112537;28;20297;-75
2021/12/09 10:04:32;;;;;;;63.35;26.20;;;;;;;3.98;69.87;94107.34;5111939;28;20201;-76
2021/12/09 10:06:59;;;;;;;60.10;25.65;;;;;;;4.07;70.07;94137.72;5112359;28;20211;-75
2021/12/09 10:09:27;;;;;;;67.80;28.48;;;;;;;4.21;70.24;94138.53;5119018;27;20740;-74
2021/12/09 10:11:55;;;;;;;61.83;27.35;;;;;;;4.13;70.58;94136.53;5146464;27;20197;-75
2021/12/09 10:14:25;;;;;;;51.05;23.30;;;;;;;3.37;71.94;94121.91;5111846;28;20221;-74
2021/12/09 10:17:06;;;;;;;60.08;25.30;;;;;;;3.43;71.11;94128.75;5111965;28;20262;-74
2021/12/09 10:19:34;;;;;;;65.78;28.38;;;;;;;3.15;73.14;94121.75;5112189;28;20213;-74
2021/12/09 10:22:07;;;;;;;69.10;27.83;;;;;;;3.13;73.49;94130.09;5112096;28;20202;-74
2021/12/09 10:24:34;;;;;;;67.45;29.40;;;;;;;3.58;71.06;94115.09;5111410;28;20567;-75
2021/12/09 10:27:01;;;;;;;45.88;22.42;;;;;;;2.96;73.88;94134.38;5112060;28;20202;-75
2021/12/09 10:29:32;;;;;;;55.92;22.98;;;;;;;3.07;73.38;94133.13;5111220;28;20667;-75
2021/12/09 10:32:01;;;;;;;60.50;25.40;;;;;;;2.49;76.67;94123.56;5110796;28;20659;-75
2021/12/09 10:34:35;;;;;;;61.38;24.58;;;;;;;3.01;75.21;94123.56;5117901;27;20234;-74
2021/12/09 10:37:09;;;;;;;58.90;23.35;;;;;;;2.77;76.22;94132.50;5118944;27;20207;-74
2021/12/09 10:39:42;;;;;;;41.25;19.20;;;;;;;2.96;74.23;94103.06;5131730;27;20265;-74
2021/12/09 10:42:13;;;;;;;59.13;24.52;;;;;;;2.61;76.57;94133.81;5131552;27;20244;-74
2021/12/09 10:44:52;;;;;;;62.58;28.45;;;;;;;3.78;74.71;94118.47;5135071;27;20650;-74
2021/12/09 10:47:34;;;;;;;54.83;23.13;;;;;;;3.79;71.09;94106.69;5128390;27;20197;-74
2021/12/09 10:50:09;;;;;;;82.20;39.75;;;;;;;4.13;71.94;94104.38;5125747;27;20273;-74
2021/12/09 10:52:42;;;;;;;69.15;28.70;;;;;;;5.23;67.90;94098.63;5122271;27;20250;-75
2021/12/09 10:55:16;;;;;;;62.08;24.92;;;;;;;5.53;67.36;94100.53;5110915;28;20715;-74
2021/12/09 10:57:44;;;;;;;57.15;25.35;;;;;;;5.79;65.32;94083.75;5115063;27;20209;-75
2021/12/09 11:00:21;;;;;;;70.47;29.27;;;;;;;5.53;67.04;94076.38;5142144;27;20236;-74
2021/12/09 11:03:00;;;;;;;63.20;28.25;;;;;;;5.75;67.97;94088.13;5138058;27;20188;-74
2021/12/09 11:05:28;;;;;;;62.35;27.58;;;;;;;6.44;64.10;94081.09;5124055;27;20664;-74
2021/12/09 11:08:11;;;;;;;75.10;29.88;;;;;;;6.56;64.43;94065.09;5118669;27;20207;-75
2021/12/09 11:10:45;;;;;;;62.90;24.83;;;;;;;6.10;64.38;94067.59;5131729;27;20896;-75
2021/12/09 11:13:13;;;;;;;63.08;28.75;;;;;;;6.48;64.53;94079.34;5141802;27;20224;-74
2021/12/09 11:15:54;;;;;;;77.15;39.95;;;;;;;6.80;64.31;94059.28;5115436;27;20271;-75
2021/12/09 11:18:33;;;;;;;86.75;42.72;;;;;;;6.58;63.80;94062.09;5110702;28;20292;-74
2021/12/09 11:21:04;;;;;;;81.60;42.92;;;;;;;6.36;66.57;94076.50;5127565;27;20191;-75
2021/12/09 11:23:35;;;;;;;84.63;42.22;;;;;;;6.45;64.00;94063.03;5122476;27;20201;-75
2021/12/09 11:26:34;;;;;;;85.70;42.67;;;;;;;6.18;64.68;94067.59;5131355;27;20200;-75